createdAt,value
2022-11-28T12:51:32.945Z,7.90
2022-11-28T12:54:03.748Z,8.10
2022-11-28T12:56:56.822Z,8.10
2022-11-28T12:59:50.134Z,8.10
2022-11-28T13:02:37.946Z,8.20
2022-11-28T13:17:17.890Z,8.50
2022-11-28T13:19:58.940Z,8.50
2022-11-28T13:22:37.696Z,8.50
2022-11-28T13:25:20.223Z,8.40
2022-11-28T13:28:14.005Z,8.30
2022-11-28T13:30:54.873Z,8.20
2022-11-28T13:33:33.610Z,8.10
2022-11-28T13:36:01.219Z,8.00
2022-11-28T13:39:11.233Z,8.00
2022-11-28T13:42:21.422Z,7.90
2022-11-28T13:44:50.013Z,7.90
2022-11-28T13:47:22.668Z,7.90
2022-11-28T13:49:49.620Z,7.80
2022-11-28T14:05:57.934Z,7.90
2022-11-28T15:30:57.833Z,7.10
2022-11-28T15:33:26.248Z,7.10
2022-11-28T15:36:02.062Z,7.00
2022-11-28T15:38:30.621Z,6.90
2022-11-28T15:40:58.992Z,6.90
2022-11-28T15:43:26.370Z,6.90
2022-11-28T15:46:02.490Z,6.90
2022-11-28T15:48:47.440Z,6.90
2022-11-28T15:51:32.666Z,6.90
2022-11-28T15:54:19.868Z,6.90
2022-11-28T15:56:59.594Z,6.90
2022-11-28T15:59:26.294Z,6.90
2022-11-28T16:01:59.412Z,6.90
2022-11-28T16:04:27.304Z,6.80
2022-11-28T16:06:57.499Z,6.80
2022-11-28T16:09:28.313Z,6.80
2022-11-28T16:11:55.174Z,6.80
2022-11-28T16:14:34.280Z,6.80
2022-11-28T16:17:06.678Z,6.80
2022-11-28T16:19:36.362Z,6.80
2022-11-28T16:22:18.943Z,6.70
2022-11-28T16:24:48.219Z,6.70
2022-11-28T16:27:34.614Z,6.70
2022-11-28T16:30:02.855Z,6.70
2022-11-28T16:32:37.795Z,6.70
2022-11-28T16:35:05.702Z,6.70
2022-11-28T16:37:32.886Z,6.70
2022-11-28T16:40:24.082Z,6.60
2022-11-28T16:42:55.013Z,6.70
2022-11-28T16:45:29.142Z,6.70
2022-11-28T16:48:00.986Z,6.70
2022-11-28T16:50:27.866Z,6.70
2022-11-28T16:52:57.797Z,6.70
2022-11-28T16:55:30.257Z,6.60
2022-11-28T16:58:10.312Z,6.70
2022-11-28T17:00:39.580Z,6.80
2022-11-28T17:03:11.654Z,6.60
2022-11-28T17:05:39.407Z,6.60
2022-11-28T17:08:07.374Z,6.60
2022-11-28T17:10:33.924Z,6.60
2022-11-28T17:13:00.466Z,6.60
2022-11-28T17:15:26.990Z,6.60
2022-11-28T17:17:55.646Z,6.70
2022-11-28T17:20:22.192Z,6.60
2022-11-28T17:22:50.985Z,6.70
2022-11-28T17:25:20.392Z,6.70
2022-11-28T17:27:48.077Z,6.60
2022-11-28T17:30:16.124Z,6.60
2022-11-28T17:32:42.673Z,6.70
2022-11-28T17:35:13.767Z,6.60
2022-11-28T17:37:40.314Z,6.60
2022-11-28T17:40:26.285Z,6.60
2022-11-28T17:42:52.871Z,6.60
2022-11-28T17:45:21.704Z,6.60
2022-11-28T17:47:48.261Z,6.60
2022-11-28T17:50:14.939Z,6.60
2022-11-28T20:53:27.033Z,6.60
2022-11-28T21:50:23.257Z,6.50
2022-11-28T21:52:49.845Z,6.60
2022-11-28T21:55:16.424Z,6.50
2022-11-28T21:57:43.060Z,6.40
2022-11-28T22:00:20.717Z,6.40
2022-11-28T22:03:02.882Z,6.40
2022-11-28T22:05:32.125Z,6.40
2022-11-28T22:07:58.921Z,6.40
2022-11-28T22:10:25.852Z,6.40
2022-11-28T22:12:53.470Z,6.40
2022-11-28T22:27:37.973Z,6.60
2022-11-28T23:48:59.716Z,6.70
2022-11-28T23:51:26.411Z,6.80
2022-11-28T23:53:53.499Z,6.80
2022-11-28T23:56:23.058Z,6.70
